Time;durP1;ratioP1;P1;durP2;ratioP2;P2;SDS_P1;SDS_P2;PMS_P1;PMS_P2;Temp;Humidity;BMP_temperature;BMP_pressure;BME280_temperature;BME280_humidity;BME280_pressure;Samples;Min_cycle;Max_cycle;Signal;HPM_P1;HPM_P2
2022/01/11 00:00:12;;;;;;;;;;;;;;;;;;5072585;28;20153;-86
2022/01/11 00:02:42;;;;;;;;;;;;;;;;;;5072776;28;19940;-86
2022/01/11 00:05:16;;;;;;;;;;;;;;;;;;5072870;28;19924;-86
2022/01/11 00:07:44;;;;;;;;;;;;;;;;;;5072829;28;20397;-85
2022/01/11 00:10:14;;;;;;;;;;;;;;;;;;5073099;28;20034;-86
2022/01/11 00:12:41;;;;;;;;;;;;;;;;;;5073178;28;20044;-85
2022/01/11 00:15:08;;;;;;;;;;;;;;;;;;5072761;28;19941;-86
2022/01/11 00:17:35;;;;;;;;;;;;;;;;;;5072680;28;20029;-86
2022/01/11 00:20:02;;;;;;;;;;;;;;;;;;5072761;28;20042;-86
2022/01/11 00:22:33;;;;;;;;;;;;;;;;;;5072540;28;20334;-86
2022/01/11 00:25:00;;;;;;;;;;;;;;;;;;5072562;28;20051;-86
2022/01/11 00:27:27;;;;;;;;;;;;;;;;;;5072866;28;19924;-86
2022/01/11 00:29:57;;;;;;;;;;;;;;;;;;5072886;28;20486;-85
2022/01/11 00:32:34;;;;;;;;;;;;;;;;;;5072610;28;19932;-85
2022/01/11 00:35:03;;;;;;;;;;;;;;;;;;5072536;28;19942;-86
2022/01/11 00:37:30;;;;;;;;;;;;;;;;;;5072411;28;19943;-86
2022/01/11 00:39:59;;;;;;;;;;;;;;;;;;5072723;28;20019;-86
2022/01/11 00:42:26;;;;;;;;;;;;;;;;;;5076236;28;19932;-85
2022/01/11 00:44:53;;;;;;;;;;;;;;;;;;5076476;28;20029;-85
2022/01/11 00:47:20;;;;;;;;;;;;;;;;;;5076319;28;20015;-86
2022/01/11 00:49:50;;;;;;;;;;;;;;;;;;5076156;28;19928;-86
2022/01/11 00:52:17;;;;;;;;;;;;;;;;;;5076320;28;19987;-86
2022/01/11 00:54:44;;;;;;;;;;;;;;;;;;5076078;28;20027;-86
2022/01/11 00:57:11;;;;;;;;;;;;;;;;;;5075968;28;20019;-85
2022/01/11 00:59:38;;;;;;;;;;;;;;;;;;5076008;28;20015;-85
2022/01/11 01:02:05;;;;;;;;;;;;;;;;;;5076124;28;20012;-86
2022/01/11 01:04:32;;;;;;;;;;;;;;;;;;5076017;28;19970;-85
2022/01/11 01:06:59;;;;;;;;;;;;;;;;;;5075983;28;19931;-86
2022/01/11 01:09:33;;;;;;;;;;;;;;;;;;5075966;28;20372;-86
2022/01/11 01:12:00;;;;;;;;;;;;;;;;;;5076060;28;20352;-85
2022/01/11 01:14:27;;;;;;;;;;;;;;;;;;5075900;28;19946;-85
2022/01/11 01:16:54;;;;;;;;;;;;;;;;;;5075833;28;19978;-86
2022/01/11 01:19:21;;;;;;;;;;;;;;;;;;5075756;28;20024;-85
2022/01/11 01:21:49;;;;;;;;;;;;;;;;;;5075527;28;20022;-86
2022/01/11 01:24:16;;;;;;;;;;;;;;;;;;5075514;28;19943;-85
2022/01/11 01:26:43;;;;;;;;;;;;;;;;;;5075416;28;20025;-85
2022/01/11 01:29:10;;;;;;;;;;;;;;;;;;5075593;28;20011;-85
2022/01/11 01:31:37;;;;;;;;;;;;;;;;;;5075440;28;20400;-86
2022/01/11 01:34:04;;;;;;;;;;;;;;;;;;5075344;28;19984;-86
2022/01/11 01:36:31;;;;;;;;;;;;;;;;;;5075523;28;20046;-86
2022/01/11 01:38:58;;;;;;;;;;;;;;;;;;5075355;28;19979;-86
2022/01/11 01:41:25;;;;;;;;;;;;;;;;;;5075350;28;20053;-86
2022/01/11 01:43:53;;;;;;;;;;;;;;;;;;5075162;28;19943;-85
2022/01/11 01:46:20;;;;;;;;;;;;;;;;;;5075239;28;19954;-86
2022/01/11 01:48:47;;;;;;;;;;;;;;;;;;5075124;28;20010;-86
2022/01/11 01:51:14;;;;;;;;;;;;;;;;;;5074485;28;19924;-86
2022/01/11 01:53:41;;;;;;;;;;;;;;;;;;5075031;28;20466;-85
2022/01/11 01:56:08;;;;;;;;;;;;;;;;;;5075279;28;19978;-85
2022/01/11 01:58:37;;;;;;;;;;;;;;;;;;5074907;28;19986;-86
2022/01/11 02:01:04;;;;;;;;;;;;;;;;;;5075690;28;19928;-86
2022/01/11 02:03:36;;;;;;;;;;;;;;;;;;5075072;28;19964;-86
2022/01/11 02:06:03;;;;;;;;;;;;;;;;;;5074803;28;19947;-85
2022/01/11 02:08:30;;;;;;;;;;;;;;;;;;5074946;28;20007;-86
2022/01/11 02:10:57;;;;;;;;;;;;;;;;;;5074664;28;20015;-86
2022/01/11 02:13:24;;;;;;;;;;;;;;;;;;5074851;28;19924;-86
2022/01/11 02:15:52;;;;;;;;;;;;;;;;;;5074626;28;20011;-86
2022/01/11 02:18:20;;;;;;;;;;;;;;;;;;5074553;28;19965;-86
2022/01/11 02:20:47;;;;;;;;;;;;;;;;;;5074400;28;19990;-86
2022/01/11 02:23:14;;;;;;;;;;;;;;;;;;5074564;28;20042;-86
2022/01/11 02:25:41;;;;;;;;;;;;;;;;;;5074656;28;19931;-86
2022/01/11 02:28:09;;;;;;;;;;;;;;;;;;5074446;28;20004;-86
2022/01/11 02:30:36;;;;;;;;;;;;;;;;;;5074383;28;19971;-86
2022/01/11 02:33:04;;;;;;;;;;;;;;;;;;5074359;28;19974;-86
2022/01/11 02:35:31;;;;;;;;;;;;;;;;;;5074691;28;19946;-86
2022/01/11 02:37:58;;;;;;;;;;;;;;;;;;5074347;28;19935;-86
2022/01/11 02:40:25;;;;;;;;;;;;;;;;;;5074275;28;19988;-86
2022/01/11 02:42:52;;;;;;;;;;;;;;;;;;5074134;28;20009;-86
2022/01/11 02:45:19;;;;;;;;;;;;;;;;;;5074037;28;20360;-86
2022/01/11 02:47:46;;;;;;;;;;;;;;;;;;5073984;28;20025;-86
2022/01/11 02:50:13;;;;;;;;;;;;;;;;;;5073746;28;20016;-86
2022/01/11 02:52:40;;;;;;;;;;;;;;;;;;5073801;28;20121;-86
2022/01/11 02:55:07;;;;;;;;;;;;;;;;;;5073972;28;20046;-85
2022/01/11 02:57:34;;;;;;;;;;;;;;;;;;5074217;28;19966;-86
2022/01/11 03:00:01;;;;;;;;;;;;;;;;;;5073774;28;20019;-86
2022/01/11 03:02:28;;;;;;;;;;;;;;;;;;5072673;28;20384;-86
2022/01/11 03:04:55;;;;;;;;;;;;;;;;;;5073383;28;20025;-86
2022/01/11 03:07:22;;;;;;;;;;;;;;;;;;5073440;28;20278;-86
2022/01/11 03:10:01;;;;;;;;;;;;;;;;;;5073233;28;20003;-86
2022/01/11 03:12:28;;;;;;;;;;;;;;;;;;5070963;28;19989;-86
2022/01/11 03:14:55;;;;;;;;;;;;;;;;;;5072897;28;20011;-86
2022/01/11 03:17:22;;;;;;;;;;;;;;;;;;5072876;28;20382;-85
2022/01/11 03:19:49;;;;;;;;;;;;;;;;;;5073135;28;20106;-86
2022/01/11 03:22:16;;;;;;;;;;;;;;;;;;5072942;28;20505;-86
2022/01/11 03:24:44;;;;;;;;;;;;;;;;;;5073189;28;19930;-87
2022/01/11 03:27:11;;;;;;;;;;;;;;;;;;5072951;28;20348;-86
2022/01/11 03:29:39;;;;;;;;;;;;;;;;;;5072946;28;20371;-86
2022/01/11 03:32:06;;;;;;;;;;;;;;;;;;5070653;28;19931;-86
2022/01/11 03:34:33;;;;;;;;;;;;;;;;;;5072839;28;20297;-86
2022/01/11 03:37:00;;;;;;;;;;;;;;;;;;5072741;28;19967;-87
2022/01/11 03:39:27;;;;;;;;;;;;;;;;;;5072864;28;20012;-86
2022/01/11 03:41:54;;;;;;;;;;;;;;;;;;5072441;28;20007;-87
2022/01/11 03:44:21;;;;;;;;;;;;;;;;;;5072769;28;20025;-86
2022/01/11 03:46:48;;;;;;;;;;;;;;;;;;5072472;28;20024;-86
2022/01/11 03:49:15;;;;;;;;;;;;;;;;;;5072493;28;20041;-85
2022/01/11 03:51:45;;;;;;;;;;;;;;;;;;5072373;28;20007;-85
2022/01/11 03:54:15;;;;;;;;;;;;;;;;;;5072760;28;20046;-86
2022/01/11 03:56:42;;;;;;;;;;;;;;;;;;5072693;28;19928;-85
2022/01/11 03:59:09;;;;;;;;;;;;;;;;;;5072548;28;19924;-86
2022/01/11 04:01:36;;;;;;;;;;;;;;;;;;5072275;28;20427;-86
2022/01/11 04:04:03;;;;;;;;;;;;;;;;;;5072284;28;19968;-86
2022/01/11 04:06:30;;;;;;;;;;;;;;;;;;5072581;28;20043;-86
2022/01/11 04:08:57;;;;;;;;;;;;;;;;;;5072054;28;19974;-86
2022/01/11 04:11:24;;;;;;;;;;;;;;;;;;5067167;28;20025;-86
2022/01/11 04:13:51;;;;;;;;;;;;;;;;;;5072188;28;20363;-86
2022/01/11 04:16:18;;;;;;;;;;;;;;;;;;5072325;28;19963;-86
2022/01/11 04:18:45;;;;;;;;;;;;;;;;;;5072240;28;19924;-86
2022/01/11 04:21:12;;;;;;;;;;;;;;;;;;5072320;28;20003;-86
2022/01/11 04:23:39;;;;;;;;;;;;;;;;;;5072080;28;20011;-86
2022/01/11 04:26:07;;;;;;;;;;;;;;;;;;5072403;28;19924;-86
2022/01/11 04:28:33;;;;;;;;;;;;;;;;;;5072720;28;19925;-85
2022/01/11 04:31:01;;;;;;;;;;;;;;;;;;5073137;28;19951;-86
2022/01/11 04:33:28;;;;;;;;;;;;;;;;;;5072180;28;20390;-87
2022/01/11 04:35:55;;;;;;;;;;;;;;;;;;5072114;28;19981;-85
2022/01/11 04:38:22;;;;;;;;;;;;;;;;;;5072145;28;19924;-86
2022/01/11 04:40:49;;;;;;;;;;;;;;;;;;5071941;28;20335;-86
2022/01/11 04:43:16;;;;;;;;;;;;;;;;;;5072204;28;20023;-86
2022/01/11 04:45:43;;;;;;;;;;;;;;;;;;5072124;28;19935;-86
2022/01/11 04:48:10;;;;;;;;;;;;;;;;;;5071885;28;20000;-86
2022/01/11 04:50:37;;;;;;;;;;;;;;;;;;5071878;28;20024;-86
2022/01/11 04:53:04;;;;;;;;;;;;;;;;;;5072135;28;20326;-85
2022/01/11 04:55:31;;;;;;;;;;;;;;;;;;5071951;28;20000;-86
2022/01/11 04:57:58;;;;;;;;;;;;;;;;;;5071721;28;19991;-86
2022/01/11 05:00:25;;;;;;;;;;;;;;;;;;5069480;28;19990;-86
2022/01/11 05:02:56;;;;;;;;;;;;;;;;;;5071621;28;20037;-86
2022/01/11 05:05:27;;;;;;;;;;;;;;;;;;5071898;28;20291;-86
2022/01/11 05:07:54;;;;;;;;;;;;;;;;;;5071647;28;19936;-86
2022/01/11 05:10:21;;;;;;;;;;;;;;;;;;5072107;28;20008;-86
2022/01/11 05:12:48;;;;;;;;;;;;;;;;;;5071844;28;20012;-86
2022/01/11 05:15:15;;;;;;;;;;;;;;;;;;5072046;28;20364;-85
2022/01/11 05:17:42;;;;;;;;;;;;;;;;;;5071515;28;20007;-88
2022/01/11 05:20:09;;;;;;;;;;;;;;;;;;5071956;28;20029;-85
2022/01/11 05:22:36;;;;;;;;;;;;;;;;;;5071585;28;20351;-86
2022/01/11 05:25:03;;;;;;;;;;;;;;;;;;5071394;28;19977;-85
2022/01/11 05:27:30;;;;;;;;;;;;;;;;;;5074478;28;20372;-86
2022/01/11 05:29:57;;;;;;;;;;;;;;;;;;5075133;28;20029;-86
2022/01/11 05:32:24;;;;;;;;;;;;;;;;;;5075039;28;20337;-86
2022/01/11 05:34:51;;;;;;;;;;;;;;;;;;5075266;28;19931;-87
2022/01/11 05:37:18;;;;;;;;;;;;;;;;;;5075136;28;20015;-86
2022/01/11 05:39:45;;;;;;;;;;;;;;;;;;5072173;28;20332;-86
2022/01/11 05:42:13;;;;;;;;;;;;;;;;;;5074886;28;20029;-86
2022/01/11 05:44:40;;;;;;;;;;;;;;;;;;5074762;28;20414;-85
2022/01/11 05:47:07;;;;;;;;;;;;;;;;;;5075096;28;20053;-86
2022/01/11 05:49:34;;;;;;;;;;;;;;;;;;5074477;28;19951;-86
2022/01/11 05:52:01;;;;;;;;;;;;;;;;;;5074796;28;19963;-86
2022/01/11 05:54:28;;;;;;;;;;;;;;;;;;5074922;28;20042;-85
2022/01/11 05:56:55;;;;;;;;;;;;;;;;;;5074992;28;20498;-86
2022/01/11 05:59:22;;;;;;;;;;;;;;;;;;5074969;28;20029;-85
2022/01/11 06:01:49;;;;;;;;;;;;;;;;;;5074919;28;19970;-86
2022/01/11 06:04:16;;;;;;;;;;;;;;;;;;5075035;28;19975;-85
2022/01/11 06:06:43;;;;;;;;;;;;;;;;;;5074701;28;20367;-85
2022/01/11 06:09:10;;;;;;;;;;;;;;;;;;5074880;28;19991;-86
2022/01/11 06:11:37;;;;;;;;;;;;;;;;;;5074534;28;20045;-85
2022/01/11 06:14:04;;;;;;;;;;;;;;;;;;5074963;28;20007;-86
2022/01/11 06:16:31;;;;;;;;;;;;;;;;;;5074781;28;20383;-86
2022/01/11 06:18:58;;;;;;;;;;;;;;;;;;5074651;28;20041;-86
2022/01/11 06:21:25;;;;;;;;;;;;;;;;;;5074872;28;20027;-86
2022/01/11 06:23:52;;;;;;;;;;;;;;;;;;5074274;28;20358;-86
2022/01/11 06:26:19;;;;;;;;;;;;;;;;;;5074521;28;20011;-86
2022/01/11 06:28:46;;;;;;;;;;;;;;;;;;5074383;28;20045;-86
2022/01/11 06:31:13;;;;;;;;;;;;;;;;;;5074637;28;20051;-85
2022/01/11 06:33:40;;;;;;;;;;;;;;;;;;5074500;28;19931;-86
2022/01/11 06:36:10;;;;;;;;;;;;;;;;;;5074334;28;19934;-85
2022/01/11 06:38:37;;;;;;;;;;;;;;;;;;5074093;28;19928;-86
2022/01/11 06:41:04;;;;;;;;;;;;;;;;;;5074174;28;20018;-85
2022/01/11 06:43:31;;;;;;;;;;;;;;;;;;5074229;28;19931;-86
2022/01/11 06:45:58;;;;;;;;;;;;;;;;;;5074136;28;20073;-86
2022/01/11 06:48:25;;;;;;;;;;;;;;;;;;5073849;28;20351;-86
2022/01/11 06:50:52;;;;;;;;;;;;;;;;;;5073897;28;19998;-86
2022/01/11 06:53:19;;;;;;;;;;;;;;;;;;5073794;28;20037;-85
2022/01/11 06:55:46;;;;;;;;;;;;;;;;;;5074264;28;19925;-86
2022/01/11 06:58:13;;;;;;;;;;;;;;;;;;5074075;28;19931;-86
2022/01/11 07:00:40;;;;;;;;;;;;;;;;;;5074075;28;19943;-85
2022/01/11 07:03:07;;;;;;;;;;;;;;;;;;5073616;28;20397;-86
2022/01/11 07:05:34;;;;;;;;;;;;;;;;;;5073668;28;20011;-85
2022/01/11 07:08:01;;;;;;;;;;;;;;;;;;5073568;28;19942;-86
2022/01/11 07:10:28;;;;;;;;;;;;;;;;;;5073795;28;20003;-86
2022/01/11 07:12:55;;;;;;;;;;;;;;;;;;5073283;28;20033;-86
2022/01/11 07:15:22;;;;;;;;;;;;;;;;;;5073408;28;19932;-86
2022/01/11 07:17:49;;;;;;;;;;;;;;;;;;5073054;28;19943;-85
2022/01/11 07:20:16;;;;;;;;;;;;;;;;;;5073132;28;20015;-86
2022/01/11 07:22:43;;;;;;;;;;;;;;;;;;5072998;28;19924;-85
2022/01/11 07:25:10;;;;;;;;;;;;;;;;;;5073099;28;20363;-86
2022/01/11 07:27:37;;;;;;;;;;;;;;;;;;5073097;28;20033;-85
2022/01/11 07:30:04;;;;;;;;;;;;;;;;;;5072979;28;20037;-85
2022/01/11 07:32:33;;;;;;;;;;;;;;;;;;5073083;28;20077;-85
2022/01/11 07:35:00;;;;;;;;;;;;;;;;;;5073214;28;19924;-86
2022/01/11 07:37:27;;;;;;;;;;;;;;;;;;5073334;28;20274;-85
2022/01/11 07:39:54;;;;;;;;;;;;;;;;;;5072877;28;19993;-85
2022/01/11 07:42:21;;;;;;;;;;;;;;;;;;5072863;28;19939;-86
2022/01/11 07:44:51;;;;;;;;;;;;;;;;;;5072953;28;20034;-86
2022/01/11 07:47:18;;;;;;;;;;;;;;;;;;5072841;28;20032;-86
2022/01/11 07:49:45;;;;;;;;;;;;;;;;;;5072353;28;19978;-86
2022/01/11 07:52:12;;;;;;;;;;;;;;;;;;5073091;28;19971;-87
2022/01/11 07:54:39;;;;;;;;;;;;;;;;;;5073262;28;20026;-87
2022/01/11 07:57:06;;;;;;;;;;;;;;;;;;5072847;28;20312;-87
2022/01/11 07:59:33;;;;;;;;;;;;;;;;;;5073337;28;20015;-87
2022/01/11 08:02:00;;;;;;;;;;;;;;;;;;5072781;28;20061;-86
2022/01/11 08:04:30;;;;;;;;;;;;;;;;;;5072675;28;20054;-87
2022/01/11 08:06:57;;;;;;;;;;;;;;;;;;5073132;28;19950;-87
2022/01/11 08:09:24;;;;;;;;;;;;;;;;;;5072735;28;20023;-87
2022/01/11 08:11:51;;;;;;;;;;;;;;;;;;5072955;28;20019;-87
2022/01/11 08:14:18;;;;;;;;;;;;;;;;;;5072694;28;19945;-87
2022/01/11 08:16:45;;;;;;;;;;;;;;;;;;5072887;28;20033;-86
2022/01/11 08:19:12;;;;;;;;;;;;;;;;;;5072702;28;20018;-87
2022/01/11 08:21:39;;;;;;;;;;;;;;;;;;5073703;28;19982;-87
2022/01/11 08:24:06;;;;;;;;;;;;;;;;;;5072461;28;20023;-86
2022/01/11 08:26:34;;;;;;;;;;;;;;;;;;5072476;28;20042;-87
2022/01/11 08:29:01;;;;;;;;;;;;;;;;;;5072973;28;19931;-87
2022/01/11 08:31:28;;;;;;;;;;;;;;;;;;5072787;28;20361;-87
2022/01/11 08:33:55;;;;;;;;;;;;;;;;;;5072740;28;20033;-87
2022/01/11 08:36:22;;;;;;;;;;;;;;;;;;5072773;28;20019;-87
2022/01/11 08:38:49;;;;;;;;;;;;;;;;;;5072829;28;20313;-86
2022/01/11 08:41:19;;;;;;;;;;;;;;;;;;5073012;28;20041;-86
2022/01/11 08:43:46;;;;;;;;;;;;;;;;;;5072463;28;19959;-87
2022/01/11 08:46:16;;;;;;;;;;;;;;;;;;5072899;28;20031;-87
2022/01/11 08:48:43;;;;;;;;;;;;;;;;;;5072349;28;20341;-86
2022/01/11 08:51:10;;;;;;;;;;;;;;;;;;5072725;28;20041;-87
2022/01/11 08:53:37;;;;;;;;;;;;;;;;;;5072436;28;20019;-87
2022/01/11 08:56:05;;;;;;;;;;;;;;;;;;5072891;28;19986;-89
2022/01/11 08:58:32;;;;;;;;;;;;;;;;;;5073189;28;19925;-88
2022/01/11 09:00:59;;;;;;;;;;;;;;;;;;5073816;28;20338;-87
2022/01/11 09:03:26;;;;;;;;;;;;;;;;;;5077135;28;20042;-88
2022/01/11 09:05:53;;;;;;;;;;;;;;;;;;5076600;28;20390;-87
2022/01/11 09:08:20;;;;;;;;;;;;;;;;;;5077455;28;20019;-89
2022/01/11 09:10:47;;;;;;;;;;;;;;;;;;5077377;28;19938;-88
2022/01/11 09:13:15;;;;;;;;;;;;;;;;;;5077500;28;20014;-89
2022/01/11 09:15:42;;;;;;;;;;;;;;;;;;5077404;28;20024;-89
2022/01/11 09:18:10;;;;;;;;;;;;;;;;;;5077517;28;20039;-89
2022/01/11 09:20:37;;;;;;;;;;;;;;;;;;5078007;28;19949;-88
2022/01/11 09:23:04;;;;;;;;;;;;;;;;;;5077475;28;20435;-89
2022/01/11 09:25:31;;;;;;;;;;;;;;;;;;5076712;28;20023;-90
2022/01/11 09:27:58;;;;;;;;;;;;;;;;;;5081064;28;20009;-90
2022/01/11 09:30:25;;;;;;;;;;;;;;;;;;5078898;28;19925;-89
2022/01/11 09:32:52;;;;;;;;;;;;;;;;;;5077518;28;20332;-89
2022/01/11 09:35:19;;;;;;;;;;;;;;;;;;5077795;28;19999;-89
2022/01/11 09:37:46;;;;;;;;;;;;;;;;;;5076657;28;20033;-86
2022/01/11 09:40:13;;;;;;;;;;;;;;;;;;5076344;28;19935;-88
2022/01/11 09:42:40;;;;;;;;;;;;;;;;;;5075826;28;20045;-88
2022/01/11 09:45:07;;;;;;;;;;;;;;;;;;5076133;28;19950;-86
2022/01/11 09:47:34;;;;;;;;;;;;;;;;;;5075605;28;19991;-86
2022/01/11 09:50:01;;;;;;;;;;;;;;;;;;5074991;28;20057;-87
2022/01/11 09:52:28;;;;;;;;;;;;;;;;;;5075003;28;20015;-87
2022/01/11 09:54:55;;;;;;;;;;;;;;;;;;5075430;28;19971;-87
2022/01/11 09:57:22;;;;;;;;;;;;;;;;;;5075217;28;19945;-86
2022/01/11 09:59:49;;;;;;;;;;;;;;;;;;5075068;28;19976;-87
2022/01/11 10:02:16;;;;;;;;;;;;;;;;;;5074991;28;20450;-87
2022/01/11 10:04:44;;;;;;;;;;;;;;;;;;5074763;28;20071;-88
2022/01/11 10:07:11;;;;;;;;;;;;;;;;;;5074552;28;19935;-87
2022/01/11 10:09:38;;;;;;;;;;;;;;;;;;5075146;28;20012;-87
2022/01/11 10:12:05;;;;;;;;;;;;;;;;;;5075613;28;20007;-88
2022/01/11 10:14:32;;;;;;;;;;;;;;;;;;5078659;28;20350;-87
2022/01/11 10:16:59;;;;;;;;;;;;;;;;;;5075173;28;20039;-89
2022/01/11 10:19:27;;;;;;;;;;;;;;;;;;5074818;28;20037;-87
2022/01/11 10:21:54;;;;;;;;;;;;;;;;;;5074313;28;19956;-86
2022/01/11 10:24:21;;;;;;;;;;;;;;;;;;5074422;28;19978;-86
2022/01/11 10:26:48;;;;;;;;;;;;;;;;;;5074710;28;20026;-87
2022/01/11 10:29:15;;;;;;;;;;;;;;;;;;5074808;28;20015;-84
2022/01/11 10:31:42;;;;;;;;;;;;;;;;;;5073954;28;20472;-84
2022/01/11 10:34:11;;;;;;;;;;;;;;;;;;5073791;28;20022;-84
2022/01/11 10:36:38;;;;;;;;;;;;;;;;;;5074225;28;19931;-84
2022/01/11 10:39:05;;;;;;;;;;;;;;;;;;5073830;28;20437;-85
2022/01/11 10:41:32;;;;;;;;;;;;;;;;;;5073871;28;19974;-84
2022/01/11 10:43:59;;;;;;;;;;;;;;;;;;5073353;28;19930;-85
2022/01/11 10:46:26;;;;;;;;;;;;;;;;;;5073587;28;19972;-84
2022/01/11 10:48:53;;;;;;;;;;;;;;;;;;5070466;28;20007;-84
2022/01/11 10:51:20;;;;;;;;;;;;;;;;;;5073491;28;20033;-84
2022/01/11 10:53:49;;;;;;;;;;;;;;;;;;5073623;28;20023;-84
2022/01/11 10:56:18;;;;;;;;;;;;;;;;;;5071064;28;19928;-83
2022/01/11 10:58:45;;;;;;;;;;;;;;;;;;5073364;28;19978;-83
2022/01/11 11:01:12;;;;;;;;;;;;;;;;;;5073180;28;20019;-84
2022/01/11 11:03:39;;;;;;;;;;;;;;;;;;5073364;28;19959;-84
2022/01/11 11:06:07;;;;;;;;;;;;;;;;;;5073381;28;19950;-84
2022/01/11 11:08:35;;;;;;;;;;;;;;;;;;5073392;28;19925;-84
2022/01/11 11:11:02;;;;;;;;;;;;;;;;;;5073303;28;19982;-85
2022/01/11 11:13:29;;;;;;;;;;;;;;;;;;5073026;28;20346;-84
2022/01/11 11:15:56;;;;;;;;;;;;;;;;;;5072841;28;20015;-85
2022/01/11 11:18:23;;;;;;;;;;;;;;;;;;5073005;28;19935;-84
2022/01/11 11:20:50;;;;;;;;;;;;;;;;;;5072746;28;20000;-83
2022/01/11 11:23:17;;;;;;;;;;;;;;;;;;5072380;28;20351;-84
2022/01/11 11:25:44;;;;;;;;;;;;;;;;;;5072438;28;20019;-84
2022/01/11 11:28:11;;;;;;;;;;;;;;;;;;5072577;28;20030;-83
2022/01/11 11:30:38;;;;;;;;;;;;;;;;;;5072587;28;20441;-83
2022/01/11 11:33:06;;;;;;;;;;;;;;;;;;5073738;28;19955;-85
2022/01/11 11:35:33;;;;;;;;;;;;;;;;;;5075031;28;19935;-84
2022/01/11 11:38:00;;;;;;;;;;;;;;;;;;5073021;28;19924;-83
2022/01/11 11:40:27;;;;;;;;;;;;;;;;;;5073277;28;20015;-83
2022/01/11 11:42:54;;;;;;;;;;;;;;;;;;5069842;28;19997;-83
2022/01/11 11:45:21;;;;;;;;;;;;;;;;;;5072465;28;20295;-83
2022/01/11 11:47:48;;;;;;;;;;;;;;;;;;5072722;28;19999;-83
2022/01/11 11:50:15;;;;;;;;;;;;;;;;;;5072185;28;20051;-84
2022/01/11 11:52:42;;;;;;;;;;;;;;;;;;5072120;28;20465;-83
2022/01/11 11:55:09;;;;;;;;;;;;;;;;;;5072205;28;20590;-83
2022/01/11 11:57:36;;;;;;;;;;;;;;;;;;5072176;28;20025;-83
2022/01/11 12:00:03;;;;;;;;;;;;;;;;;;5072123;28;20015;-82
2022/01/11 12:02:30;;;;;;;;;;;;;;;;;;5072056;28;20470;-83
2022/01/11 12:04:57;;;;;;;;;;;;;;;;;;5072410;28;20045;-83
2022/01/11 12:07:24;;;;;;;;;;;;;;;;;;5071936;28;20401;-82
2022/01/11 12:09:52;;;;;;;;;;;;;;;;;;5071916;28;19928;-83
2022/01/11 12:12:19;;;;;;;;;;;;;;;;;;5071794;28;19924;-83
2022/01/11 12:14:46;;;;;;;;;;;;;;;;;;5072182;28;19924;-82
2022/01/11 12:17:16;;;;;;;;;;;;;;;;;;5072990;28;20011;-82
2022/01/11 12:19:43;;;;;;;;;;;;;;;;;;5073388;28;20404;-83
2022/01/11 12:22:10;;;;;;;;;;;;;;;;;;5073511;28;19959;-83
2022/01/11 12:24:37;;;;;;;;;;;;;;;;;;5073138;28;20525;-84
2022/01/11 12:27:04;;;;;;;;;;;;;;;;;;5073416;28;20011;-83
2022/01/11 12:29:31;;;;;;;;;;;;;;;;;;5072996;28;19925;-82
2022/01/11 12:31:58;;;;;;;;;;;;;;;;;;5073512;28;20358;-82
2022/01/11 12:34:27;;;;;;;;;;;;;;;;;;5073260;28;19996;-82
2022/01/11 12:36:55;;;;;;;;;;;;;;;;;;5077074;28;19925;-83
2022/01/11 12:39:21;;;;;;;;;;;;;;;;;;5077138;28;19928;-83
2022/01/11 12:41:49;;;;;;;;;;;;;;;;;;5077233;28;20504;-83
2022/01/11 12:44:18;;;;;;;;;;;;;;;;;;5077084;28;19961;-82
2022/01/11 12:46:45;;;;;;;;;;;;;;;;;;5077072;28;19935;-83
2022/01/11 12:49:12;;;;;;;;;;;;;;;;;;5076949;28;20419;-83
2022/01/11 12:51:42;;;;;;;;;;;;;;;;;;5076946;28;20016;-81
2022/01/11 12:54:09;;;;;;;;;;;;;;;;;;5076888;28;20323;-81
2022/01/11 12:56:36;;;;;;;;;;;;;;;;;;5076957;28;20016;-82
2022/01/11 12:59:03;;;;;;;;;;;;;;;;;;5076872;28;20001;-81
2022/01/11 13:01:30;;;;;;;;;;;;;;;;;;5076689;28;20007;-81
2022/01/11 13:03:57;;;;;;;;;;;;;;;;;;5076358;28;19936;-81
2022/01/11 13:06:24;;;;;;;;;;;;;;;;;;5076669;28;20000;-82
2022/01/11 13:08:52;;;;;;;;;;;;;;;;;;5076743;28;20005;-81
2022/01/11 13:11:20;;;;;;;;;;;;;;;;;;5076903;28;20415;-82
2022/01/11 13:13:54;;;;;;;;;;;;;;;;;;5076784;28;20369;-82
2022/01/11 13:16:21;;;;;;;;;;;;;;;;;;5076705;28;19931;-82
2022/01/11 13:18:48;;;;;;;;;;;;;;;;;;5076476;28;19993;-81
2022/01/11 13:21:14;;;;;;;;;;;;;;;;;;5075858;28;19948;-82
2022/01/11 13:23:46;;;;;;;;;;;;;;;;;;5076311;28;20395;-81
2022/01/11 13:26:13;;;;;;;;;;;;;;;;;;5076623;28;19928;-81
2022/01/11 13:28:42;;;;;;;;;;;;;;;;;;5076347;28;20029;-82
2022/01/11 13:31:09;;;;;;;;;;;;;;;;;;5076561;28;19932;-82
2022/01/11 13:33:36;;;;;;;;;;;;;;;;;;5076375;28;19943;-81
2022/01/11 13:36:03;;;;;;;;;;;;;;;;;;5076470;28;20029;-82
2022/01/11 13:38:33;;;;;;;;;;;;;;;;;;5076329;28;20026;-83
2022/01/11 13:41:00;;;;;;;;;;;;;;;;;;5076121;28;20384;-81
2022/01/11 13:43:27;;;;;;;;;;;;;;;;;;5077868;28;19999;-82
2022/01/11 13:45:54;;;;;;;;;;;;;;;;;;5077111;28;19929;-82
2022/01/11 13:48:21;;;;;;;;;;;;;;;;;;5074787;28;20460;-81
2022/01/11 13:50:48;;;;;;;;;;;;;;;;;;5075864;28;20074;-81
2022/01/11 13:53:15;;;;;;;;;;;;;;;;;;5075826;28;20368;-83
2022/01/11 13:55:42;;;;;;;;;;;;;;;;;;5075850;28;20003;-83
2022/01/11 13:58:09;;;;;;;;;;;;;;;;;;5075676;28;20039;-82
2022/01/11 14:00:37;;;;;;;;;;;;;;;;;;5075707;28;20037;-80
2022/01/11 14:03:04;;;;;;;;;;;;;;;;;;5075587;28;19954;-82
2022/01/11 14:05:31;;;;;;;;;;;;;;;;;;5075368;28;20038;-82
2022/01/11 14:08:03;;;;;;;;;;;;;;;;;;5075583;28;19947;-81
2022/01/11 14:10:35;;;;;;;;;;;;;;;;;;5075710;28;19931;-81
2022/01/11 14:13:02;;;;;;;;;;;;;;;;;;5075447;28;19982;-82
2022/01/11 14:15:29;;;;;;;;;;;;;;;;;;5075242;28;20364;-82
2022/01/11 14:17:56;;;;;;;;;;;;;;;;;;5075515;28;19974;-82
2022/01/11 14:20:23;;;;;;;;;;;;;;;;;;5075198;28;20042;-82
2022/01/11 14:22:51;;;;;;;;;;;;;;;;;;5075364;28;20333;-82
2022/01/11 14:25:18;;;;;;;;;;;;;;;;;;5075202;28;19924;-82
2022/01/11 14:27:46;;;;;;;;;;;;;;;;;;5075222;28;20003;-82
2022/01/11 14:30:13;;;;;;;;;;;;;;;;;;5075187;28;19955;-82
2022/01/11 14:32:40;;;;;;;;;;;;;;;;;;5075319;28;20020;-82
2022/01/11 14:35:07;;;;;;;;;;;;;;;;;;5075093;28;20004;-82
2022/01/11 14:37:34;;;;;;;;;;;;;;;;;;5075159;28;19976;-83
2022/01/11 14:40:01;;;;;;;;;;;;;;;;;;5074787;28;20041;-81
2022/01/11 14:42:28;;;;;;;;;;;;;;;;;;5075074;28;19968;-83
2022/01/11 14:44:55;;;;;;;;;;;;;;;;;;5074756;28;20015;-82
2022/01/11 14:47:22;;;;;;;;;;;;;;;;;;5074988;28;20364;-83
2022/01/11 14:49:49;;;;;;;;;;;;;;;;;;5074607;28;20050;-81
2022/01/11 14:52:19;;;;;;;;;;;;;;;;;;5074739;28;20011;-82
2022/01/11 14:54:46;;;;;;;;;;;;;;;;;;5074899;28;19924;-82
2022/01/11 14:57:14;;;;;;;;;;;;;;;;;;5074563;28;20011;-83
2022/01/11 14:59:41;;;;;;;;;;;;;;;;;;5074295;28;19950;-84
2022/01/11 15:02:09;;;;;;;;;;;;;;;;;;5074316;28;20019;-83
2022/01/11 15:04:36;;;;;;;;;;;;;;;;;;5074187;28;20476;-83
2022/01/11 15:07:03;;;;;;;;;;;;;;;;;;5074473;28;20015;-84
2022/01/11 15:09:30;;;;;;;;;;;;;;;;;;5074459;28;20014;-84
2022/01/11 15:11:57;;;;;;;;;;;;;;;;;;5074232;28;20014;-85
2022/01/11 15:14:24;;;;;;;;;;;;;;;;;;5074195;28;20349;-84
2022/01/11 15:16:51;;;;;;;;;;;;;;;;;;5074795;28;19999;-84
2022/01/11 15:19:18;;;;;;;;;;;;;;;;;;5074254;28;20015;-83
2022/01/11 15:21:45;;;;;;;;;;;;;;;;;;5073931;28;20019;-83
2022/01/11 15:24:12;;;;;;;;;;;;;;;;;;5074261;28;19928;-84
2022/01/11 15:26:39;;;;;;;;;;;;;;;;;;5073887;28;20007;-83
2022/01/11 15:29:06;;;;;;;;;;;;;;;;;;5075938;28;19973;-83
2022/01/11 15:31:33;;;;;;;;;;;;;;;;;;5078125;28;19971;-83
2022/01/11 15:34:00;;;;;;;;;;;;;;;;;;5073940;28;19924;-83
2022/01/11 15:36:27;;;;;;;;;;;;;;;;;;5074162;28;20025;-83
2022/01/11 15:38:54;;;;;;;;;;;;;;;;;;5073947;28;20035;-84
2022/01/11 15:41:22;;;;;;;;;;;;;;;;;;5073866;28;20015;-84
2022/01/11 15:43:49;;;;;;;;;;;;;;;;;;5074050;28;19956;-84
2022/01/11 15:46:16;;;;;;;;;;;;;;;;;;5074368;28;20344;-84
2022/01/11 15:48:43;;;;;;;;;;;;;;;;;;5073894;28;20059;-84
2022/01/11 15:51:10;;;;;;;;;;;;;;;;;;5074295;28;20011;-84
2022/01/11 15:53:37;;;;;;;;;;;;;;;;;;5073967;28;20030;-84
2022/01/11 15:56:04;;;;;;;;;;;;;;;;;;5073973;28;20050;-84
2022/01/11 15:58:31;;;;;;;;;;;;;;;;;;5073939;28;20033;-84
2022/01/11 16:00:58;;;;;;;;;;;;;;;;;;5073750;28;19936;-84
2022/01/11 16:03:25;;;;;;;;;;;;;;;;;;5073633;28;20038;-84
2022/01/11 16:05:52;;;;;;;;;;;;;;;;;;5074117;28;20107;-83
2022/01/11 16:08:19;;;;;;;;;;;;;;;;;;5073717;28;20029;-84
2022/01/11 16:10:46;;;;;;;;;;;;;;;;;;5075964;28;20042;-84
2022/01/11 16:13:13;;;;;;;;;;;;;;;;;;5073852;28;20011;-83
2022/01/11 16:15:40;;;;;;;;;;;;;;;;;;5073829;28;20288;-84
2022/01/11 16:18:07;;;;;;;;;;;;;;;;;;5074465;28;20011;-82
2022/01/11 16:20:34;;;;;;;;;;;;;;;;;;5073882;28;20029;-83
2022/01/11 16:23:01;;;;;;;;;;;;;;;;;;5074151;28;20360;-84
2022/01/11 16:25:28;;;;;;;;;;;;;;;;;;5074095;28;19998;-83
2022/01/11 16:27:55;;;;;;;;;;;;;;;;;;5073947;28;20417;-84
2022/01/11 16:30:24;;;;;;;;;;;;;;;;;;5073525;28;20031;-84
2022/01/11 16:32:54;;;;;;;;;;;;;;;;;;5073468;28;19924;-84
2022/01/11 16:35:22;;;;;;;;;;;;;;;;;;5074114;28;20030;-85
2022/01/11 16:37:50;;;;;;;;;;;;;;;;;;5073805;28;20082;-84
2022/01/11 16:42:38;;;;;;;;;;;;;;;;;;5073954;28;20348;-83
2022/01/11 16:43:07;;;;;;;;;;;;;;;;;;5073479;28;20011;-85
2022/01/11 16:45:34;;;;;;;;;;;;;;;;;;5073441;28;20006;-84